FLIGHT DETAILS
Pilot: ACV287 Karlo Siljevinac Aircraft: PMDG - 747-400F RB211 ENGINES - SILKWAY - 4K-800 Distance: 4756NM
Departure FACT Arrival LDDU Duration 9.51
Validation Validated Type Charter Tail Number 4K-800
ZFW 227084 Block Fuel/Initial FOB 114,910/0 Flight Fuel 113,861
Passengers 0 Cargo 65800 Alternate LDZA
Departure Time 2330 Cruise Speed 480 Flight Level 33000
Flight Type IFR Aircraft Type Weight Unit Kg
Date 2017-02-01 Pilot Comments Network IVAO
Crashed No Validator Comments Flight Rating 100

 ROUTE
ROUTE
REMARKS
 FLIGHT FAILURES
Crashed OK Beacon off & Engine Running Fail KIAS Above 250 below 10000 FT Fail
Lights OFF below 10000 FT Fail Lights ON above 10000 FT OK Stall OK
Overspeed OK Flight paused Fail Refueling OK
Slew detected OK Taxi & Taxi lights off OK Take off & lights off OK
Landing & lights off OK Landed in not planned airport OK Taxi Speed Fail
Wrong altimeter in Take off OK Wrong altimeter in Landing Fail
 LANDING ANALYSIS
Landing wind 0º/0 kt Landing heading 97
Landing VS: -221.46 ft/min Landing IAS: 147.95 kt
Landing Force G 1.1 G Landing Bank 5.2
Landing Pitch 3.6 Landing Flaps 33
Navigation Lights ON Landing Lights ON
Beacon Lights OFF Strobe Lights ON
 FLIGHT MAP
 ALTITUDE CHART
 FLIGHT FINANCIAL REPORT
 MAIN EVENTS
DATE EVENTIASALTITUDE
2017-01-31 23:20:21 SIM ACARS version 1.4.00163
2017-01-31 23:20:21 BOARDING0163
2017-01-31 23:20:21 STARTING ENGINE 1 0163
2017-01-31 23:20:21 STARTING ENGINE 2 0163
2017-01-31 23:20:21 STARTING ENGINE 3 0163
2017-01-31 23:20:21 STARTING ENGINE 4 0163
2017-01-31 23:20:21 BEACON LIGHT OFF & ENGINE ON0163
2017-01-31 23:20:56 PUSHBACK0163
2017-01-31 23:22:10 FLAPS EXTENSION 17 % 0163
2017-01-31 23:22:10 FLAPS EXTENSION 33 % 0163
2017-01-31 23:22:10 FLAPS EXTENSION 50 % 0163
2017-01-31 23:22:27 TAXI TO THE RWY 9163
2017-01-31 23:23:35 ROLLING FOR TAKE OFF42163
2017-01-31 23:23:59 TAKE OFF167165
2017-01-31 23:24:02 GEAR UP176187
2017-01-31 23:24:08 GEAR DOWN190323
2017-01-31 23:24:08 GEAR UP191337
2017-01-31 23:24:32 FLAPS EXTENSION 33 % 2401051
2017-01-31 23:24:39 FLAPS EXTENSION 17 % 2531283
2017-01-31 23:24:43 IAS ABOVE 250 KNOTS BELOW 10000 ft2611419
2017-01-31 23:25:26 FLAPS EXTENSION 0 % 2412831
2017-01-31 23:52:10 CRUISE31232987
2017-02-01 08:58:58 DESCEND30032068
2017-02-01 09:02:28 SIM PAUSED29923663
2017-02-01 09:02:29 SIM UNPAUSED29923663
2017-02-01 09:09:23 FLAPS EXTENSION 17 % 2459584
2017-02-01 09:09:26 FLAPS EXTENSION 33 % 2449515
2017-02-01 09:09:26 LIGHTS OFF BELOW 10000 ft2449499
2017-02-01 09:10:28 FLAPS EXTENSION 50 % 2167964
2017-02-01 09:10:34 FLAPS EXTENSION 67 % 2137822
2017-02-01 09:11:34 GEAR DOWN2076429
2017-02-01 09:12:07 GEAR UP1975810
2017-02-01 09:12:11 GEAR DOWN1975701
2017-02-01 09:13:34 FLAPS EXTENSION 83 % 1743111
2017-02-01 09:13:36 FLAPS EXTENSION 100 % 1743087
2017-02-01 09:16:20 FLAPS EXTENSION 100 % 1791514
2017-02-01 09:16:20 FLAPS EXTENSION 100 % 1801521
2017-02-01 09:16:20 FLAPS EXTENSION 83 % 1801523
2017-02-01 09:16:20 FLAPS EXTENSION 100 % 1801529
2017-02-01 09:16:21 FLAPS EXTENSION 83 % 1811534
2017-02-01 09:16:21 FLAPS EXTENSION 100 % 1811541
2017-02-01 09:16:21 FLAPS EXTENSION 83 % 1811548
2017-02-01 09:16:21 FLAPS EXTENSION 100 % 1821559
2017-02-01 09:16:22 FLAPS EXTENSION 83 % 1821563
2017-02-01 09:16:22 FLAPS EXTENSION 100 % 1831569
2017-02-01 09:16:22 FLAPS EXTENSION 83 % 1831571
2017-02-01 09:16:22 FLAPS EXTENSION 83 % 1831573
2017-02-01 09:16:22 FLAPS EXTENSION 83 % 1841576
2017-02-01 09:16:23 FLAPS EXTENSION 83 % 1841583
2017-02-01 09:16:23 FLAPS EXTENSION 83 % 1851587
2017-02-01 09:16:23 FLAPS EXTENSION 100 % 1861591
2017-02-01 09:16:23 FLAPS EXTENSION 83 % 1861594
2017-02-01 09:16:23 FLAPS EXTENSION 100 % 1871598
2017-02-01 09:16:24 FLAPS EXTENSION 83 % 1881597
2017-02-01 09:16:24 FLAPS EXTENSION 100 % 1891610
2017-02-01 09:16:24 FLAPS EXTENSION 83 % 1901620
2017-02-01 09:16:24 FLAPS EXTENSION 100 % 1901621
2017-02-01 09:16:25 FLAPS EXTENSION 100 % 1901624
2017-02-01 09:16:25 FLAPS EXTENSION 83 % 1911625
2017-02-01 09:16:25 FLAPS EXTENSION 100 % 1911632
2017-02-01 09:16:25 FLAPS EXTENSION 83 % 1921638
2017-02-01 09:16:25 FLAPS EXTENSION 100 % 1921641
2017-02-01 09:16:26 FLAPS EXTENSION 100 % 1921642
2017-02-01 09:16:26 FLAPS EXTENSION 100 % 1931649
2017-02-01 09:16:26 FLAPS EXTENSION 83 % 1931659
2017-02-01 09:16:26 FLAPS EXTENSION 100 % 1931663
2017-02-01 09:16:26 FLAPS EXTENSION 100 % 1941672
2017-02-01 09:16:27 FLAPS EXTENSION 83 % 1941675
2017-02-01 09:16:27 FLAPS EXTENSION 100 % 1941686
2017-02-01 09:16:27 FLAPS EXTENSION 83 % 1951691
2017-02-01 09:16:27 FLAPS EXTENSION 83 % 1951695
2017-02-01 09:16:27 FLAPS EXTENSION 100 % 1951702
2017-02-01 09:16:28 FLAPS EXTENSION 83 % 1951715
2017-02-01 09:16:28 FLAPS EXTENSION 100 % 1951731
2017-02-01 09:16:28 FLAPS EXTENSION 83 % 1951733
2017-02-01 09:16:28 FLAPS EXTENSION 83 % 1951741
2017-02-01 09:16:28 FLAPS EXTENSION 100 % 1951746
2017-02-01 09:16:29 FLAPS EXTENSION 83 % 1951761
2017-02-01 09:16:29 CLIMBING1941765
2017-02-01 09:16:29 FLAPS EXTENSION 83 % 1941770
2017-02-01 09:16:29 FLAPS EXTENSION 100 % 1931785
2017-02-01 09:16:29 FLAPS EXTENSION 83 % 1931795
2017-02-01 09:16:30 FLAPS EXTENSION 83 % 1901829
2017-02-01 09:16:30 FLAPS EXTENSION 100 % 1901834
2017-02-01 09:16:30 FLAPS EXTENSION 83 % 1891842
2017-02-01 09:16:30 FLAPS EXTENSION 100 % 1891853
2017-02-01 09:16:31 FLAPS EXTENSION 100 % 1881855
2017-02-01 09:16:31 FLAPS EXTENSION 83 % 1881862
2017-02-01 09:16:31 FLAPS EXTENSION 100 % 1871874
2017-02-01 09:16:31 FLAPS EXTENSION 100 % 1861880
2017-02-01 09:16:32 FLAPS EXTENSION 100 % 1851894
2017-02-01 09:16:32 FLAPS EXTENSION 83 % 1841908
2017-02-01 09:16:32 FLAPS EXTENSION 100 % 1841912
2017-02-01 09:16:32 FLAPS EXTENSION 100 % 1831920
2017-02-01 09:16:33 FLAPS EXTENSION 83 % 1821931
2017-02-01 09:16:33 FLAPS EXTENSION 100 % 1821937
2017-02-01 09:16:33 FLAPS EXTENSION 83 % 1811945
2017-02-01 09:16:33 FLAPS EXTENSION 100 % 1811951
2017-02-01 09:16:33 FLAPS EXTENSION 100 % 1801963
2017-02-01 09:16:34 FLAPS EXTENSION 83 % 1791966
2017-02-01 09:16:34 FLAPS EXTENSION 100 % 1781976
2017-02-01 09:16:34 FLAPS EXTENSION 83 % 1781980
2017-02-01 09:16:34 FLAPS EXTENSION 83 % 1781983
2017-02-01 09:16:34 FLAPS EXTENSION 100 % 1771990
2017-02-01 09:16:35 FLAPS EXTENSION 83 % 1771996
2017-02-01 09:16:35 FLAPS EXTENSION 83 % 1772000
2017-02-01 09:16:35 FLAPS EXTENSION 83 % 1762011
2017-02-01 09:16:35 FLAPS EXTENSION 83 % 1762018
2017-02-01 09:16:35 FLAPS EXTENSION 100 % 1762023
2017-02-01 09:16:36 FLAPS EXTENSION 83 % 1762026
2017-02-01 09:16:36 FLAPS EXTENSION 83 % 1752045
2017-02-01 09:16:36 FLAPS EXTENSION 100 % 1752047
2017-02-01 09:16:37 FLAPS EXTENSION 83 % 1762054
2017-02-01 09:16:37 FLAPS EXTENSION 100 % 1762058
2017-02-01 09:16:37 FLAPS EXTENSION 83 % 1762063
2017-02-01 09:16:37 FLAPS EXTENSION 100 % 1762067
2017-02-01 09:16:38 FLAPS EXTENSION 100 % 1762070
2017-02-01 09:16:38 FLAPS EXTENSION 83 % 1762074
2017-02-01 09:16:38 FLAPS EXTENSION 100 % 1752077
2017-02-01 09:16:38 GEAR UP1752079
2017-02-01 09:16:38 FLAPS EXTENSION 100 % 1752082
2017-02-01 09:16:39 FLAPS EXTENSION 100 % 1752085
2017-02-01 09:16:40 FLAPS EXTENSION 83 % 1742110
2017-02-01 09:16:40 FLAPS EXTENSION 100 % 1742116
2017-02-01 09:16:41 FLAPS EXTENSION 83 % 1742120
2017-02-01 09:16:41 FLAPS EXTENSION 83 % 1742129
2017-02-01 09:16:41 FLAPS EXTENSION 100 % 1742134
2017-02-01 09:16:41 FLAPS EXTENSION 83 % 1742138
2017-02-01 09:16:42 FLAPS EXTENSION 83 % 1742141
2017-02-01 09:16:42 FLAPS EXTENSION 100 % 1742146
2017-02-01 09:16:42 FLAPS EXTENSION 83 % 1742149
2017-02-01 09:16:42 FLAPS EXTENSION 83 % 1742150
2017-02-01 09:16:42 FLAPS EXTENSION 100 % 1752153
2017-02-01 09:16:43 FLAPS EXTENSION 83 % 1752156
2017-02-01 09:16:43 FLAPS EXTENSION 100 % 1752160
2017-02-01 09:16:43 FLAPS EXTENSION 83 % 1762163
2017-02-01 09:16:43 FLAPS EXTENSION 100 % 1762167
2017-02-01 09:16:44 FLAPS EXTENSION 33 % 1762169
2017-02-01 09:16:59 FLAPS EXTENSION 17 % 1622612
2017-02-01 09:17:14 FLAPS EXTENSION 33 % 2022429
2017-02-01 09:18:09 CRUISE2363727
2017-02-01 09:18:55 GEAR DOWN2454077
2017-02-01 09:19:10 FLAPS EXTENSION 50 % 2343967
2017-02-01 09:19:13 FLAPS EXTENSION 67 % 2293941
2017-02-01 09:19:19 DESCEND2193872
2017-02-01 09:19:42 FLAPS EXTENSION 83 % 1943370
2017-02-01 09:19:44 FLAPS EXTENSION 100 % 1933332
2017-02-01 09:19:44 FLAPS EXTENSION 100 % 1923326
2017-02-01 09:19:44 FLAPS EXTENSION 83 % 1923320
2017-02-01 09:19:44 FLAPS EXTENSION 100 % 1923314
2017-02-01 09:19:44 FLAPS EXTENSION 100 % 1923307
2017-02-01 09:19:45 FLAPS EXTENSION 83 % 1923305
2017-02-01 09:19:45 FLAPS EXTENSION 100 % 1913295
2017-02-01 09:19:45 FLAPS EXTENSION 83 % 1913292
2017-02-01 09:19:45 FLAPS EXTENSION 100 % 1913278
2017-02-01 09:19:45 FLAPS EXTENSION 83 % 1913276
2017-02-01 09:19:46 FLAPS EXTENSION 83 % 1913272
2017-02-01 09:19:46 FLAPS EXTENSION 83 % 1903259
2017-02-01 09:19:46 FLAPS EXTENSION 83 % 1903255
2017-02-01 09:19:46 FLAPS EXTENSION 100 % 1903245
2017-02-01 09:19:47 FLAPS EXTENSION 83 % 1903241
2017-02-01 09:19:47 FLAPS EXTENSION 83 % 1893234
2017-02-01 09:19:47 FLAPS EXTENSION 100 % 1893228
2017-02-01 09:19:47 FLAPS EXTENSION 83 % 1893224
2017-02-01 09:19:47 FLAPS EXTENSION 83 % 1893216
2017-02-01 09:19:47 FLAPS EXTENSION 100 % 1893213
2017-02-01 09:19:48 FLAPS EXTENSION 100 % 1893201
2017-02-01 09:19:48 FLAPS EXTENSION 83 % 1893197
2017-02-01 09:19:48 FLAPS EXTENSION 100 % 1893188
2017-02-01 09:19:48 FLAPS EXTENSION 83 % 1893184
2017-02-01 09:19:49 FLAPS EXTENSION 83 % 1893179
2017-02-01 09:19:49 FLAPS EXTENSION 83 % 1893177
2017-02-01 09:19:49 FLAPS EXTENSION 100 % 1893169
2017-02-01 09:19:49 FLAPS EXTENSION 83 % 1893166
2017-02-01 09:19:49 FLAPS EXTENSION 83 % 1883157
2017-02-01 09:19:50 FLAPS EXTENSION 83 % 1883149
2017-02-01 09:19:50 FLAPS EXTENSION 83 % 1883142
2017-02-01 09:19:50 FLAPS EXTENSION 83 % 1883139
2017-02-01 09:19:50 FLAPS EXTENSION 83 % 1883125
2017-02-01 09:19:51 FLAPS EXTENSION 100 % 1883118
2017-02-01 09:19:51 FLAPS EXTENSION 83 % 1883115
2017-02-01 09:19:51 FLAPS EXTENSION 100 % 1883105
2017-02-01 09:19:51 FLAPS EXTENSION 83 % 1873099
2017-02-01 09:19:51 FLAPS EXTENSION 100 % 1873091
2017-02-01 09:19:52 FLAPS EXTENSION 100 % 1873084
2017-02-01 09:19:52 FLAPS EXTENSION 83 % 1873082
2017-02-01 09:19:52 FLAPS EXTENSION 100 % 1873080
2017-02-01 09:19:52 FLAPS EXTENSION 100 % 1873078
2017-02-01 09:19:52 FLAPS EXTENSION 83 % 1863073
2017-02-01 09:19:53 FLAPS EXTENSION 100 % 1863068
2017-02-01 09:19:53 FLAPS EXTENSION 100 % 1863063
2017-02-01 09:19:53 FLAPS EXTENSION 83 % 1863059
2017-02-01 09:19:53 FLAPS EXTENSION 100 % 1853056
2017-02-01 09:19:53 FLAPS EXTENSION 100 % 1853055
2017-02-01 09:19:53 FLAPS EXTENSION 83 % 1853052
2017-02-01 09:19:54 FLAPS EXTENSION 100 % 1853049
2017-02-01 09:19:54 FLAPS EXTENSION 83 % 1853048
2017-02-01 09:19:54 FLAPS EXTENSION 100 % 1853047
2017-02-01 09:19:54 FLAPS EXTENSION 83 % 1853046
2017-02-01 09:19:54 FLAPS EXTENSION 83 % 1843045
2017-02-01 09:19:54 FLAPS EXTENSION 100 % 1843043
2017-02-01 09:19:54 FLAPS EXTENSION 83 % 1843043
2017-02-01 09:19:55 FLAPS EXTENSION 83 % 1843042
2017-02-01 09:19:55 FLAPS EXTENSION 83 % 1843042
2017-02-01 09:19:55 FLAPS EXTENSION 83 % 1833040
2017-02-01 09:19:55 FLAPS EXTENSION 83 % 1833040
2017-02-01 09:19:56 FLAPS EXTENSION 83 % 1833040
2017-02-01 09:19:56 FLAPS EXTENSION 83 % 1823040
2017-02-01 09:19:56 FLAPS EXTENSION 100 % 1823041
2017-02-01 09:19:56 FLAPS EXTENSION 83 % 1823041
2017-02-01 09:19:56 FLAPS EXTENSION 100 % 1823041
2017-02-01 09:19:56 FLAPS EXTENSION 83 % 1823041
2017-02-01 09:19:57 FLAPS EXTENSION 100 % 1823042
2017-02-01 09:19:57 FLAPS EXTENSION 100 % 1813042
2017-02-01 09:19:57 FLAPS EXTENSION 83 % 1813043
2017-02-01 09:19:57 FLAPS EXTENSION 100 % 1813044
2017-02-01 09:19:57 FLAPS EXTENSION 83 % 1803045
2017-02-01 09:19:58 FLAPS EXTENSION 100 % 1803046
2017-02-01 09:19:58 FLAPS EXTENSION 100 % 1803047
2017-02-01 09:19:58 FLAPS EXTENSION 100 % 1793048
2017-02-01 09:19:58 FLAPS EXTENSION 100 % 1793048
2017-02-01 09:19:58 FLAPS EXTENSION 83 % 1793049
2017-02-01 09:19:59 FLAPS EXTENSION 100 % 1783050
2017-02-01 09:19:59 FLAPS EXTENSION 100 % 1783051
2017-02-01 09:19:59 FLAPS EXTENSION 83 % 1783052
2017-02-01 09:19:59 FLAPS EXTENSION 100 % 1773052
2017-02-01 09:19:59 FLAPS EXTENSION 83 % 1773054
2017-02-01 09:20:00 FLAPS EXTENSION 100 % 1763056
2017-02-01 09:20:00 FLAPS EXTENSION 83 % 1763057
2017-02-01 09:20:00 FLAPS EXTENSION 100 % 1763059
2017-02-01 09:20:00 FLAPS EXTENSION 83 % 1753060
2017-02-01 09:20:01 FLAPS EXTENSION 83 % 1753061
2017-02-01 09:20:01 FLAPS EXTENSION 100 % 1753062
2017-02-01 09:20:01 FLAPS EXTENSION 83 % 1753063
2017-02-01 09:20:01 FLAPS EXTENSION 83 % 1753064
2017-02-01 09:20:01 FLAPS EXTENSION 100 % 1743066
2017-02-01 09:20:01 FLAPS EXTENSION 83 % 1743066
2017-02-01 09:20:02 FLAPS EXTENSION 83 % 1743067
2017-02-01 09:20:02 FLAPS EXTENSION 100 % 1733069
2017-02-01 09:20:02 FLAPS EXTENSION 83 % 1733070
2017-02-01 09:20:02 FLAPS EXTENSION 83 % 1733071
2017-02-01 09:20:03 FLAPS EXTENSION 83 % 1733071
2017-02-01 09:20:03 FLAPS EXTENSION 100 % 1723072
2017-02-01 09:20:03 FLAPS EXTENSION 83 % 1723072
2017-02-01 09:20:04 FLAPS EXTENSION 100 % 1723072
2017-02-01 09:20:04 FLAPS EXTENSION 83 % 1723071
2017-02-01 09:20:04 FLAPS EXTENSION 100 % 1713071
2017-02-01 09:20:04 FLAPS EXTENSION 100 % 1713070
2017-02-01 09:20:04 FLAPS EXTENSION 100 % 1713070
2017-02-01 09:20:04 FLAPS EXTENSION 100 % 1713069
2017-02-01 09:20:04 FLAPS EXTENSION 83 % 1713069
2017-02-01 09:20:05 FLAPS EXTENSION 100 % 1713068
2017-02-01 09:20:05 FLAPS EXTENSION 100 % 1713067
2017-02-01 09:20:05 FLAPS EXTENSION 100 % 1713065
2017-02-01 09:20:05 FLAPS EXTENSION 100 % 1703062
2017-02-01 09:20:05 FLAPS EXTENSION 100 % 1703061
2017-02-01 09:20:06 FLAPS EXTENSION 100 % 1703058
2017-02-01 09:22:08 LANDING148542
2017-02-01 09:22:18 FLAPS EXTENSION 33 % 115541
2017-02-01 09:22:24 STOPPING ENGINE 3 79541
2017-02-01 09:22:24 STARTING ENGINE 3 78541
2017-02-01 09:22:25 STOPPING ENGINE 3 75541
2017-02-01 09:22:25 STARTING ENGINE 3 74541
2017-02-01 09:22:26 STOPPING ENGINE 3 66541
2017-02-01 09:22:26 STARTING ENGINE 3 65541
2017-02-01 09:22:27 STOPPING ENGINE 3 62541
2017-02-01 09:22:27 STARTING ENGINE 3 61540
2017-02-01 09:22:27 STOPPING ENGINE 3 58540
2017-02-01 09:22:33 STARTING ENGINE 3 41540
2017-02-01 09:22:35 FLAPS EXTENSION 17 % 35540
2017-02-01 09:22:52 TAXI TO THE GATE20540
2017-02-01 09:23:17 TAXI SPEED ABOVE 25 KTS24540
2017-02-01 09:23:23 FLAPS EXTENSION 0 % 26540
 ACARS DATA
DATE IASGSALTITUDEFUEL CONSUMED OATFLIGHT STATUS
2017-01-31 23:21:21021624114BOARDING
2017-01-31 23:22:21231629314BOARDING
2017-01-31 23:23:214516228014TAXI TO THE RWY
2017-01-31 23:24:21216219719110013CLIMBING
2017-01-31 23:25:212542592689173110CLIMBING
2017-01-31 23:26:21258272408822107CLIMBING
2017-01-31 23:27:21276290698228151CLIMBING
2017-01-31 23:28:2127830898843383-4CLIMBING
2017-01-31 23:29:21339391112183912-6CLIMBING
2017-01-31 23:30:21351418140574405-12CLIMBING
2017-01-31 23:31:21351434166854847-17CLIMBING
2017-01-31 23:32:21351448188845253-22CLIMBING
2017-01-31 23:33:21351460207125630-25CLIMBING
2017-01-31 23:34:21351471222445979-28CLIMBING
2017-01-31 23:35:21351480235586312-31CLIMBING
2017-01-31 23:36:21351477246136630-33CLIMBING
2017-01-31 23:37:21351484255796936-35CLIMBING
2017-01-31 23:38:21351490264327232-37CLIMBING
2017-01-31 23:39:21351496271897517-38CLIMBING
2017-01-31 23:40:21350500278647799-39CLIMBING
2017-01-31 23:41:21343498287198070-41CLIMBING
2017-01-31 23:42:21338497294168331-43CLIMBING
2017-01-31 23:43:21333495300048583-44CLIMBING
2017-01-31 23:44:21329494305238831-45CLIMBING
2017-01-31 23:45:21326493309749072-46CLIMBING
2017-01-31 23:46:21323492313819309-47CLIMBING
2017-01-31 23:47:21320491317369543-47CLIMBING
2017-01-31 23:48:21318490320489771-48CLIMBING
2017-01-31 23:49:21316490323279997-48CLIMBING
2017-01-31 23:50:213144893257510219-49CLIMBING
2017-01-31 23:51:213134893278810445-49CLIMBING
2017-01-31 23:52:213124893298610666-50CRUISE
2017-01-31 23:53:213114883299510872-50CRUISE
2017-01-31 23:54:213104883299611078-50CRUISE
2017-01-31 23:55:213104883300111283-50CRUISE
2017-01-31 23:56:213104883299911489-50CRUISE
2017-01-31 23:57:213104883299811693-50CRUISE
2017-01-31 23:58:213104883299711904-50CRUISE
2017-01-31 23:59:213104883299912114-50CRUISE
2017-02-01 00:00:213104883300212324-50CRUISE
2017-02-01 00:01:213104883299812531-50CRUISE
2017-02-01 00:02:213104883299812739-50CRUISE
2017-02-01 00:03:213104883299712947-50CRUISE
2017-02-01 00:04:213104883299713154-50CRUISE
2017-02-01 00:05:213104883299613361-50CRUISE
2017-02-01 00:06:213104883299813565-50CRUISE
2017-02-01 00:07:213104883299813773-50CRUISE
2017-02-01 00:08:213104883299313981-50CRUISE
2017-02-01 00:09:213104883299514184-50CRUISE
2017-02-01 00:10:213104883299714388-50CRUISE
2017-02-01 00:11:213104883299914596-50CRUISE
2017-02-01 00:12:213104893299914796-50CRUISE
2017-02-01 00:13:213104903299815001-50CRUISE
2017-02-01 00:14:213104903299815207-50CRUISE
2017-02-01 00:15:213104903299915414-50CRUISE
2017-02-01 00:16:213104903299715618-50CRUISE
2017-02-01 00:17:213104903299815825-50CRUISE
2017-02-01 00:18:213104883299516030-50CRUISE
2017-02-01 00:19:213104883300016235-50CRUISE
2017-02-01 00:20:213104883299616438-50CRUISE
2017-02-01 00:21:223104883299816643-50CRUISE
2017-02-01 00:22:223104883299716848-50CRUISE
2017-02-01 00:23:223104883300617052-50CRUISE
2017-02-01 00:24:223104883299717259-50CRUISE
2017-02-01 00:25:223104883299817467-50CRUISE
2017-02-01 00:26:223104883299817673-50CRUISE
2017-02-01 00:27:223104883299917879-50CRUISE
2017-02-01 00:28:223104883299718083-50CRUISE
2017-02-01 00:29:223104873299718286-50CRUISE
2017-02-01 00:30:223104873299718493-50CRUISE
2017-02-01 00:31:223104873299718698-50CRUISE
2017-02-01 00:32:223104873299718904-50CRUISE
2017-02-01 00:33:223104873299819110-50CRUISE
2017-02-01 00:34:223104873299719313-50CRUISE
2017-02-01 00:35:223104873299519517-50CRUISE
2017-02-01 00:36:223104873299719719-50CRUISE
2017-02-01 00:37:223104873299719923-50CRUISE
2017-02-01 00:38:223104873299820128-50CRUISE
2017-02-01 00:39:223104873299820330-50CRUISE
2017-02-01 00:40:223104873299820531-50CRUISE
2017-02-01 00:41:223104873299920735-50CRUISE
2017-02-01 00:42:223104873299720936-50CRUISE
2017-02-01 00:43:223104873299721140-50CRUISE
2017-02-01 00:44:223104883299821343-50CRUISE
2017-02-01 00:45:223104873299821544-50CRUISE
2017-02-01 00:46:223104883299821748-50CRUISE
2017-02-01 00:47:223104873299721948-50CRUISE
2017-02-01 00:48:223104873299822151-50CRUISE
2017-02-01 00:49:223104873299822355-50CRUISE
2017-02-01 00:50:223115003300122566-50CRUISE
2017-02-01 00:51:223105013300022767-50CRUISE
2017-02-01 00:52:223105013299822969-50CRUISE
2017-02-01 00:53:223105013299823172-50CRUISE
2017-02-01 00:54:223105013299923373-50CRUISE
2017-02-01 00:55:223094963299423579-50CRUISE
2017-02-01 00:56:223104883299823785-50CRUISE
2017-02-01 00:57:223104883299823988-50CRUISE
2017-02-01 00:58:223104883299824189-50CRUISE
2017-02-01 00:59:223104883299824389-50CRUISE
2017-02-01 01:00:223104883299824590-50CRUISE
2017-02-01 01:01:223104883299824792-50CRUISE
2017-02-01 01:02:223104883299824992-50CRUISE
2017-02-01 01:03:223104883299825191-50CRUISE
2017-02-01 01:04:223104883299825391-50CRUISE
2017-02-01 01:05:223104883299825591-50CRUISE
2017-02-01 01:06:223104883299825794-50CRUISE
2017-02-01 01:07:223104883299825995-50CRUISE
2017-02-01 01:08:223104883299826198-50CRUISE
2017-02-01 01:09:223104883299826403-50CRUISE
2017-02-01 01:10:223104883299826602-50CRUISE
2017-02-01 01:11:223104883299826804-50CRUISE
2017-02-01 01:12:223104883299827007-50CRUISE
2017-02-01 01:13:223094873299827204-50CRUISE
2017-02-01 01:14:223104883299827404-50CRUISE
2017-02-01 01:15:223104883299827603-50CRUISE
2017-02-01 01:16:223104883299827801-50CRUISE
2017-02-01 01:17:223104883299828002-50CRUISE
2017-02-01 01:18:223104883299828207-50CRUISE
2017-02-01 01:19:223104883299828405-50CRUISE
2017-02-01 01:20:223104883299828605-50CRUISE
2017-02-01 01:21:223104883299828805-50CRUISE
2017-02-01 01:22:223104883299829006-50CRUISE
2017-02-01 01:23:223104883299829209-50CRUISE
2017-02-01 01:24:223104883299829408-50CRUISE
2017-02-01 01:25:223104873299829607-50CRUISE
2017-02-01 01:26:223104883299829808-50CRUISE
2017-02-01 01:27:223104883299830007-50CRUISE
2017-02-01 01:28:223104883299830209-50CRUISE
2017-02-01 01:29:223104883299830405-50CRUISE
2017-02-01 01:30:223104883299830603-50CRUISE
2017-02-01 01:31:233104883299830803-50CRUISE
2017-02-01 01:32:223104883299831002-50CRUISE
2017-02-01 01:33:223104883299831206-50CRUISE
2017-02-01 01:34:233104883299831401-50CRUISE
2017-02-01 01:35:233104883299831601-50CRUISE
2017-02-01 01:36:233104883299831800-50CRUISE
2017-02-01 01:37:233104883299831997-50CRUISE
2017-02-01 01:38:233104883299832198-50CRUISE
2017-02-01 01:39:233104883299832397-50CRUISE
2017-02-01 01:40:233104883299832596-50CRUISE
2017-02-01 01:41:233104883299832793-50CRUISE
2017-02-01 01:42:233104883299732989-50CRUISE
2017-02-01 01:43:233104883299833187-50CRUISE
2017-02-01 01:44:233104883299833385-50CRUISE
2017-02-01 01:45:233104883299833586-50CRUISE
2017-02-01 01:46:233104883299833784-50CRUISE
2017-02-01 01:47:233104883299833984-50CRUISE
2017-02-01 01:48:233104883299834180-50CRUISE
2017-02-01 01:49:233104883299834376-50CRUISE
2017-02-01 01:50:233104873299834574-50CRUISE
2017-02-01 01:51:233104873299834770-50CRUISE
2017-02-01 01:52:233104873299834970-50CRUISE
2017-02-01 01:53:233104873299835166-50CRUISE
2017-02-01 01:54:233104873299835365-50CRUISE
2017-02-01 01:55:233104873299835565-50CRUISE
2017-02-01 01:56:233104873299835761-50CRUISE
2017-02-01 01:57:233094873299835955-50CRUISE
2017-02-01 01:58:233094873299736152-50CRUISE
2017-02-01 01:59:233094873299736352-50CRUISE
2017-02-01 02:00:233094883299736548-50CRUISE
2017-02-01 02:01:233094893299836746-50CRUISE
2017-02-01 02:02:233094893299836944-50CRUISE
2017-02-01 02:03:233094873299837142-50CRUISE
2017-02-01 02:04:233094873299837341-50CRUISE
2017-02-01 02:05:233094873299837537-50CRUISE
2017-02-01 02:06:233094873299837734-50CRUISE
2017-02-01 02:07:233094873299737930-50CRUISE
2017-02-01 02:08:233094873299838127-50CRUISE
2017-02-01 02:09:233094873299838318-50CRUISE
2017-02-01 02:10:233094873299838516-50CRUISE
2017-02-01 02:11:233094873299838710-50CRUISE
2017-02-01 02:12:233094873299838906-50CRUISE
2017-02-01 02:13:233094873299839102-50CRUISE
2017-02-01 02:14:233094873299839297-50CRUISE
2017-02-01 02:15:233094873299839490-50CRUISE
2017-02-01 02:16:233094873299739686-50CRUISE
2017-02-01 02:17:233094873299739880-50CRUISE
2017-02-01 02:18:233094873299840072-50CRUISE
2017-02-01 02:19:233094873299840267-50CRUISE
2017-02-01 02:20:233094873299840458-50CRUISE
2017-02-01 02:21:233094873299840652-50CRUISE
2017-02-01 02:22:233094873299740848-50CRUISE
2017-02-01 02:23:233094873299841043-50CRUISE
2017-02-01 02:24:233094873299841235-50CRUISE
2017-02-01 02:25:233094873299741430-50CRUISE
2017-02-01 02:26:233094873299841625-50CRUISE
2017-02-01 02:27:233094873299741822-50CRUISE
2017-02-01 02:28:233094873299842016-50CRUISE
2017-02-01 02:29:233094873299742210-50CRUISE
2017-02-01 02:30:233094873299742403-50CRUISE
2017-02-01 02:31:233094873299842595-50CRUISE
2017-02-01 02:32:233094873299742789-50CRUISE
2017-02-01 02:33:233094873299842982-50CRUISE
2017-02-01 02:34:233094873299843175-50CRUISE
2017-02-01 02:35:233094873299843369-50CRUISE
2017-02-01 02:36:233094873299843562-50CRUISE
2017-02-01 02:37:233094873299743755-50CRUISE
2017-02-01 02:38:233094873299843946-50CRUISE
2017-02-01 02:39:233094863299744137-50CRUISE
2017-02-01 02:40:233094873299844335-50CRUISE
2017-02-01 02:41:233094873299744527-50CRUISE
2017-02-01 02:42:233094873299844722-50CRUISE
2017-02-01 02:43:233094873299744918-50CRUISE
2017-02-01 02:44:233094873299845109-50CRUISE
2017-02-01 02:45:233094873299745305-50CRUISE
2017-02-01 02:46:243094873299845497-50CRUISE
2017-02-01 02:47:243094873299745687-50CRUISE
2017-02-01 02:48:243094873299845881-50CRUISE
2017-02-01 02:49:243094873299746075-50CRUISE
2017-02-01 02:50:243094873299846269-50CRUISE
2017-02-01 02:51:243094873299846462-50CRUISE
2017-02-01 02:52:243094873299846658-50CRUISE
2017-02-01 02:53:243094873299846848-50CRUISE
2017-02-01 02:54:243094863299847042-50CRUISE
2017-02-01 02:55:243094873299847232-50CRUISE
2017-02-01 02:56:243094873299847424-50CRUISE
2017-02-01 02:57:243094873299747621-50CRUISE
2017-02-01 02:58:243094873299847813-50CRUISE
2017-02-01 02:59:243094873299748006-50CRUISE
2017-02-01 03:00:243094873299748197-50CRUISE
2017-02-01 03:01:243094873299848386-50CRUISE
2017-02-01 03:02:243094873299748575-50CRUISE
2017-02-01 03:03:243094873299748767-50CRUISE
2017-02-01 03:04:243094873299848955-50CRUISE
2017-02-01 03:05:243094873299849145-50CRUISE
2017-02-01 03:06:243094873299749341-50CRUISE
2017-02-01 03:07:243094873299849530-50CRUISE
2017-02-01 03:08:243094873299849721-50CRUISE
2017-02-01 03:09:243094873299549913-50CRUISE
2017-02-01 03:10:243085023299850110-50CRUISE
2017-02-01 03:11:243085023299850301-50CRUISE
2017-02-01 03:12:243085023299850494-50CRUISE
2017-02-01 03:13:243085023299850685-50CRUISE
2017-02-01 03:14:243085023299850875-50CRUISE
2017-02-01 03:15:243085023299851065-50CRUISE
2017-02-01 03:16:243085023299851254-50CRUISE
2017-02-01 03:17:243085023299851442-50CRUISE
2017-02-01 03:18:243085023299851633-50CRUISE
2017-02-01 03:19:243085023299851826-50CRUISE
2017-02-01 03:20:243085023299852019-50CRUISE
2017-02-01 03:21:243085023299852210-50CRUISE
2017-02-01 03:22:243085023299852398-50CRUISE
2017-02-01 03:23:243085023299852592-50CRUISE
2017-02-01 03:24:243085023299852783-50CRUISE
2017-02-01 03:25:243085023299852971-50CRUISE
2017-02-01 03:26:243085023299853160-50CRUISE
2017-02-01 03:27:243085023299853348-50CRUISE
2017-02-01 03:28:243085023299853537-50CRUISE
2017-02-01 03:29:243085023299853727-50CRUISE
2017-02-01 03:30:243085023299853916-50CRUISE
2017-02-01 03:31:243094843299854113-50CRUISE
2017-02-01 03:32:243084823299854302-50CRUISE
2017-02-01 03:33:243084823299854493-50CRUISE
2017-02-01 03:34:243084823299854681-50CRUISE
2017-02-01 03:35:243084823299854871-50CRUISE
2017-02-01 03:36:243084823299855061-50CRUISE
2017-02-01 03:37:243084823299855253-50CRUISE
2017-02-01 03:38:243084823299855442-50CRUISE
2017-02-01 03:39:243084823299855629-50CRUISE
2017-02-01 03:40:243084823299855817-50CRUISE
2017-02-01 03:41:243084823299856007-50CRUISE
2017-02-01 03:42:243084823299856194-50CRUISE
2017-02-01 03:43:243084823299856382-50CRUISE
2017-02-01 03:44:243084823299856570-50CRUISE
2017-02-01 03:45:243084823299856760-50CRUISE
2017-02-01 03:46:243084813299856945-50CRUISE
2017-02-01 03:47:243084813299857134-50CRUISE
2017-02-01 03:48:243084813299857320-50CRUISE
2017-02-01 03:49:243084813299857511-50CRUISE
2017-02-01 03:50:243084813299857699-50CRUISE
2017-02-01 03:51:243084813299857885-50CRUISE
2017-02-01 03:52:243084813299858072-50CRUISE
2017-02-01 03:53:243084813299858259-50CRUISE
2017-02-01 03:54:243084813299858445-50CRUISE
2017-02-01 03:55:243084813299858634-50CRUISE
2017-02-01 03:56:243084813299858820-50CRUISE
2017-02-01 03:57:243084813299859008-50CRUISE
2017-02-01 03:58:243084813299859194-50CRUISE
2017-02-01 03:59:243084813299859380-50CRUISE
2017-02-01 04:00:253084813299859565-50CRUISE
2017-02-01 04:01:243084813299859753-50CRUISE
2017-02-01 04:02:253084813299859941-50CRUISE
2017-02-01 04:03:253084813299860127-50CRUISE
2017-02-01 04:04:253084813299860316-50CRUISE
2017-02-01 04:05:253084813299860501-50CRUISE
2017-02-01 04:06:253084813299860687-50CRUISE
2017-02-01 04:07:253084843299560872-50CRUISE
2017-02-01 04:08:253084893299861060-50CRUISE
2017-02-01 04:09:253084893299861245-50CRUISE
2017-02-01 04:10:253084893299861435-50CRUISE
2017-02-01 04:11:253084893299861623-50CRUISE
2017-02-01 04:12:253084893299861806-50CRUISE
2017-02-01 04:13:253084893299861994-50CRUISE
2017-02-01 04:14:253084893299862181-50CRUISE
2017-02-01 04:15:253084893299862365-50CRUISE
2017-02-01 04:16:253084893299862548-50CRUISE
2017-02-01 04:17:253084893299862737-50CRUISE
2017-02-01 04:18:253084853299862923-50CRUISE
2017-02-01 04:19:253084853299863108-50CRUISE
2017-02-01 04:20:253084853299863296-50CRUISE
2017-02-01 04:21:253084853299863480-50CRUISE
2017-02-01 04:22:253084853299863668-50CRUISE
2017-02-01 04:23:253084853299863855-50CRUISE
2017-02-01 04:24:253084853299864038-50CRUISE
2017-02-01 04:25:253084853299864225-50CRUISE
2017-02-01 04:26:253084853299864413-50CRUISE
2017-02-01 04:27:253084853299864596-50CRUISE
2017-02-01 04:28:253084853299864785-50CRUISE
2017-02-01 04:29:253084853299864968-50CRUISE
2017-02-01 04:30:253084853299865151-50CRUISE
2017-02-01 04:31:253084853299865334-50CRUISE
2017-02-01 04:32:253084853299865518-50CRUISE
2017-02-01 04:33:253084853299765701-50CRUISE
2017-02-01 04:34:253084853299765889-50CRUISE
2017-02-01 04:35:253084853299766072-50CRUISE
2017-02-01 04:36:253084853299866256-50CRUISE
2017-02-01 04:37:253084853299866442-50CRUISE
2017-02-01 04:38:253084853299866624-50CRUISE
2017-02-01 04:39:253084853299866808-50CRUISE
2017-02-01 04:40:253084853299866990-50CRUISE
2017-02-01 04:41:253084853299867172-50CRUISE
2017-02-01 04:42:253084853299767356-50CRUISE
2017-02-01 04:43:253084853299867539-50CRUISE
2017-02-01 04:44:253084853299867726-50CRUISE
2017-02-01 04:45:253084853299867912-50CRUISE
2017-02-01 04:46:253084853299868097-50CRUISE
2017-02-01 04:47:253084853299868279-50CRUISE
2017-02-01 04:48:253084853299868466-50CRUISE
2017-02-01 04:49:253084853299768650-50CRUISE
2017-02-01 04:50:253074853299768831-50CRUISE
2017-02-01 04:51:253074853299769013-50CRUISE
2017-02-01 04:52:253074853299769195-50CRUISE
2017-02-01 04:53:253074853299769375-50CRUISE
2017-02-01 04:54:253074853299869556-50CRUISE
2017-02-01 04:55:253074853299769737-50CRUISE
2017-02-01 04:56:253074853299869919-50CRUISE
2017-02-01 04:57:253074853299770102-50CRUISE
2017-02-01 04:58:253074853299770282-50CRUISE
2017-02-01 04:59:253074853299870465-50CRUISE
2017-02-01 05:00:253074853299770650-50CRUISE
2017-02-01 05:01:253074853299870836-50CRUISE
2017-02-01 05:02:253074853299771016-50CRUISE
2017-02-01 05:03:253074853299871199-50CRUISE
2017-02-01 05:04:253074853299771380-50CRUISE
2017-02-01 05:05:253074853299771562-50CRUISE
2017-02-01 05:06:253074853299771743-50CRUISE
2017-02-01 05:07:253074853299771925-50CRUISE
2017-02-01 05:08:253074853299872107-50CRUISE
2017-02-01 05:09:253074853299872287-50CRUISE
2017-02-01 05:10:253074853299772466-50CRUISE
2017-02-01 05:11:253074853299772651-50CRUISE
2017-02-01 05:12:253074853299872831-50CRUISE
2017-02-01 05:13:263074853299773013-50CRUISE
2017-02-01 05:14:263074853299873191-50CRUISE
2017-02-01 05:15:263074853299773370-50CRUISE
2017-02-01 05:16:263074853299773549-50CRUISE
2017-02-01 05:17:263074863299873731-50CRUISE
2017-02-01 05:18:263074863299873913-50CRUISE
2017-02-01 05:19:263074863299774092-50CRUISE
2017-02-01 05:20:263074863299874268-50CRUISE
2017-02-01 05:21:263074853299874449-50CRUISE
2017-02-01 05:22:263074853299774628-50CRUISE
2017-02-01 05:23:263074853299874811-50CRUISE
2017-02-01 05:24:263074853299874997-50CRUISE
2017-02-01 05:25:263074853299875175-50CRUISE
2017-02-01 05:26:263074853299875360-50CRUISE
2017-02-01 05:27:263074853299775540-50CRUISE
2017-02-01 05:28:263074853299775721-50CRUISE
2017-02-01 05:29:263074853299775901-50CRUISE
2017-02-01 05:30:263074853299776078-50CRUISE
2017-02-01 05:31:263074853299776257-50CRUISE
2017-02-01 05:32:263074853299776435-50CRUISE
2017-02-01 05:33:263074853299876614-50CRUISE
2017-02-01 05:34:263074853299876797-50CRUISE
2017-02-01 05:35:263074853299876977-50CRUISE
2017-02-01 05:36:263074853299877155-50CRUISE
2017-02-01 05:37:263074853299877333-50CRUISE
2017-02-01 05:38:263074853299777512-50CRUISE
2017-02-01 05:39:263074853299877691-50CRUISE
2017-02-01 05:40:263074853299877866-50CRUISE
2017-02-01 05:41:263074853299878045-50CRUISE
2017-02-01 05:42:263074853299878221-50CRUISE
2017-02-01 05:43:263074853299878399-50CRUISE
2017-02-01 05:44:263074853299878576-50CRUISE
2017-02-01 05:45:263074853299878757-50CRUISE
2017-02-01 05:46:263074853299778936-50CRUISE
2017-02-01 05:47:263074853299779115-50CRUISE
2017-02-01 05:48:263074853299779291-50CRUISE
2017-02-01 05:49:263074853299879465-50CRUISE
2017-02-01 05:50:263064853299879642-50CRUISE
2017-02-01 05:51:263064853299879822-50CRUISE
2017-02-01 05:52:263064853299879996-50CRUISE
2017-02-01 05:53:263064853299880172-50CRUISE
2017-02-01 05:54:263064853299880348-50CRUISE
2017-02-01 05:55:263064853299880522-50CRUISE
2017-02-01 05:56:263064853299880699-50CRUISE
2017-02-01 05:57:263064853299880877-50CRUISE
2017-02-01 05:58:263064853299881050-50CRUISE
2017-02-01 05:59:263064853299881225-50CRUISE
2017-02-01 06:00:263064853299881400-50CRUISE
2017-02-01 06:01:263064853299881572-50CRUISE
2017-02-01 06:02:263064853299881748-50CRUISE
2017-02-01 06:03:263064853299881921-50CRUISE
2017-02-01 06:04:263064853299782098-50CRUISE
2017-02-01 06:05:263064853299782274-50CRUISE
2017-02-01 06:06:263064853299882450-50CRUISE
2017-02-01 06:07:263064853299882624-50CRUISE
2017-02-01 06:08:263064853299882800-50CRUISE
2017-02-01 06:09:263064853299882977-50CRUISE
2017-02-01 06:10:263064853299883150-50CRUISE
2017-02-01 06:11:263064853299883324-50CRUISE
2017-02-01 06:12:263064853299883501-50CRUISE
2017-02-01 06:13:263064853299883678-50CRUISE
2017-02-01 06:14:263064853299883849-50CRUISE
2017-02-01 06:15:263064853299884022-50CRUISE
2017-02-01 06:16:263064853299884202-50CRUISE
2017-02-01 06:17:263064853299884376-50CRUISE
2017-02-01 06:18:263064853299884551-50CRUISE
2017-02-01 06:19:263064853299784728-50CRUISE
2017-02-01 06:20:263064853299884901-50CRUISE
2017-02-01 06:21:263064853299785073-50CRUISE
2017-02-01 06:22:263064843299885243-50CRUISE
2017-02-01 06:23:263064843299885414-50CRUISE
2017-02-01 06:24:263064843299885588-50CRUISE
2017-02-01 06:25:273064843299885764-50CRUISE
2017-02-01 06:26:263064843299885939-50CRUISE
2017-02-01 06:27:273064843299886111-50CRUISE
2017-02-01 06:28:263064843299886284-50CRUISE
2017-02-01 06:29:273064843299886456-50CRUISE
2017-02-01 06:30:273064843299886629-50CRUISE
2017-02-01 06:31:273064843299886804-50CRUISE
2017-02-01 06:32:273064843299786979-50CRUISE
2017-02-01 06:33:273064843299887155-50CRUISE
2017-02-01 06:34:273064843299887325-50CRUISE
2017-02-01 06:35:273064843299887497-50CRUISE
2017-02-01 06:36:273064843299887669-50CRUISE
2017-02-01 06:37:273064843299887842-50CRUISE
2017-02-01 06:38:273064843299888017-50CRUISE
2017-02-01 06:39:273064843299888191-50CRUISE
2017-02-01 06:40:273064843299888363-50CRUISE
2017-02-01 06:41:273064843299888536-50CRUISE
2017-02-01 06:42:273064843299788708-50CRUISE
2017-02-01 06:43:273064843299888880-50CRUISE
2017-02-01 06:44:273064843299889049-50CRUISE
2017-02-01 06:45:273064843299889223-50CRUISE
2017-02-01 06:46:273064843299889398-50CRUISE
2017-02-01 06:47:273064843299789574-50CRUISE
2017-02-01 06:48:273064843299789746-50CRUISE
2017-02-01 06:49:273064843299889917-50CRUISE
2017-02-01 06:50:273064843299890089-50CRUISE
2017-02-01 06:51:273064843299890262-50CRUISE
2017-02-01 06:52:273064843299890435-50CRUISE
2017-02-01 06:53:273064843299790602-50CRUISE
2017-02-01 06:54:273054833299890775-50CRUISE
2017-02-01 06:55:273054843299890948-50CRUISE
2017-02-01 06:56:273054843299891119-50CRUISE
2017-02-01 06:57:273054843299791290-50CRUISE
2017-02-01 06:58:273054843299791461-50CRUISE
2017-02-01 06:59:273054843299891628-50CRUISE
2017-02-01 07:00:273054843299891795-50CRUISE
2017-02-01 07:01:273054843299791964-50CRUISE
2017-02-01 07:02:273054843299892132-50CRUISE
2017-02-01 07:03:273054843299892302-50CRUISE
2017-02-01 07:04:273054843299892472-50CRUISE
2017-02-01 07:05:273054843299892641-50CRUISE
2017-02-01 07:06:273054843299792810-50CRUISE
2017-02-01 07:07:273064953300092986-50CRUISE
2017-02-01 07:08:273064983300093155-50CRUISE
2017-02-01 07:09:273054983299893324-50CRUISE
2017-02-01 07:10:273054983299893493-50CRUISE
2017-02-01 07:11:273054983299893661-50CRUISE
2017-02-01 07:12:273054983299893831-50CRUISE
2017-02-01 07:13:273054983299894000-50CRUISE
2017-02-01 07:14:273054983299794170-50CRUISE
2017-02-01 07:15:273054983299894339-50CRUISE
2017-02-01 07:16:273054983299894508-50CRUISE
2017-02-01 07:17:273054983299794681-50CRUISE
2017-02-01 07:18:273054983299794852-50CRUISE
2017-02-01 07:19:273054983299895023-50CRUISE
2017-02-01 07:20:273054983299895193-50CRUISE
2017-02-01 07:21:273054983299795363-50CRUISE
2017-02-01 07:22:273054983299895530-50CRUISE
2017-02-01 07:23:273054983299895701-50CRUISE
2017-02-01 07:24:273054983299795870-50CRUISE
2017-02-01 07:25:273054983299796034-50CRUISE
2017-02-01 07:26:273054973299596200-50CRUISE
2017-02-01 07:27:273054973299196367-50CRUISE
2017-02-01 07:28:273054973299696534-50CRUISE
2017-02-01 07:29:273054973299896705-50CRUISE
2017-02-01 07:30:273054963299896874-50CRUISE
2017-02-01 07:31:273054973299697043-50CRUISE
2017-02-01 07:32:273054973299997213-50CRUISE
2017-02-01 07:33:273054973299697379-50CRUISE
2017-02-01 07:34:273054973299997547-50CRUISE
2017-02-01 07:35:273054973299797717-50CRUISE
2017-02-01 07:36:273054973299897884-50CRUISE
2017-02-01 07:37:273054973299898053-50CRUISE
2017-02-01 07:38:273054973299798220-50CRUISE
2017-02-01 07:39:273054973299898390-50CRUISE
2017-02-01 07:40:273054973299698556-50CRUISE
2017-02-01 07:41:273054973299898725-50CRUISE
2017-02-01 07:42:273054973299798894-50CRUISE
2017-02-01 07:43:283054973299899058-50CRUISE
2017-02-01 07:44:283054983299899225-50CRUISE
2017-02-01 07:45:283054983299899392-50CRUISE
2017-02-01 07:46:283054983299999556-50CRUISE
2017-02-01 07:47:283054943299899721-50CRUISE
2017-02-01 07:48:283054913299899892-50CRUISE
2017-02-01 07:49:2830549132998100058-50CRUISE
2017-02-01 07:50:2830549132998100225-50CRUISE
2017-02-01 07:51:2830549032999100394-50CRUISE
2017-02-01 07:52:2830548932999100563-50CRUISE
2017-02-01 07:53:2830548832998100735-50CRUISE
2017-02-01 07:54:2830548932996100902-50CRUISE
2017-02-01 07:55:2830548932999101067-50CRUISE
2017-02-01 07:56:2830548832999101233-50CRUISE
2017-02-01 07:57:2830548932997101398-50CRUISE
2017-02-01 07:58:2830548933000101563-50CRUISE
2017-02-01 07:59:2830548932998101732-50CRUISE
2017-02-01 08:00:2830448232995101899-50CRUISE
2017-02-01 08:01:2830547632999102068-50CRUISE
2017-02-01 08:02:2830447432998102235-50CRUISE
2017-02-01 08:03:2830547432998102397-50CRUISE
2017-02-01 08:04:2830447532995102562-50CRUISE
2017-02-01 08:05:2830448332999102729-50CRUISE
2017-02-01 08:06:2830548432998102898-50CRUISE
2017-02-01 08:07:2830548432998103064-50CRUISE
2017-02-01 08:08:2830548432997103235-50CRUISE
2017-02-01 08:09:2830548432998103401-50CRUISE
2017-02-01 08:10:2830548432998103565-50CRUISE
2017-02-01 08:11:2830548432997103727-50CRUISE
2017-02-01 08:12:2830548432998103892-50CRUISE
2017-02-01 08:13:2830548432998104055-50CRUISE
2017-02-01 08:14:2830548432998104219-50CRUISE
2017-02-01 08:15:2830548432998104382-50CRUISE
2017-02-01 08:16:2830548432998104549-50CRUISE
2017-02-01 08:17:2830548432998104712-50CRUISE
2017-02-01 08:18:2830548432998104875-50CRUISE
2017-02-01 08:19:2830548432998105036-50CRUISE
2017-02-01 08:20:2830548432997105197-50CRUISE
2017-02-01 08:21:2830548432997105359-50CRUISE
2017-02-01 08:22:2830548432998105517-50CRUISE
2017-02-01 08:23:2830548432998105681-50CRUISE
2017-02-01 08:24:2830548432998105842-50CRUISE
2017-02-01 08:25:2830548432998106006-50CRUISE
2017-02-01 08:26:2830548432997106169-50CRUISE
2017-02-01 08:27:2830548432998106327-50CRUISE
2017-02-01 08:28:2830548432998106489-50CRUISE
2017-02-01 08:29:2830548432997106651-50CRUISE
2017-02-01 08:30:2830548432998106813-50CRUISE
2017-02-01 08:31:2830548432998106978-50CRUISE
2017-02-01 08:32:2830548432997107142-50CRUISE
2017-02-01 08:33:2830548432998107302-50CRUISE
2017-02-01 08:34:2830548432998107463-50CRUISE
2017-02-01 08:35:2830548432997107627-50CRUISE
2017-02-01 08:36:2830548432998107792-50CRUISE
2017-02-01 08:37:2830548432998107954-50CRUISE
2017-02-01 08:38:2830548332997108117-50CRUISE
2017-02-01 08:39:2830548332998108276-50CRUISE
2017-02-01 08:40:2830548432998108439-50CRUISE
2017-02-01 08:41:2830548432998108601-50CRUISE
2017-02-01 08:42:2830548332998108763-50CRUISE
2017-02-01 08:43:2830548432998108925-50CRUISE
2017-02-01 08:44:2830448332998109082-50CRUISE
2017-02-01 08:45:2830448332998109246-50CRUISE
2017-02-01 08:46:2830448332997109406-50CRUISE
2017-02-01 08:47:2830448332998109567-50CRUISE
2017-02-01 08:48:2830448332998109730-50CRUISE
2017-02-01 08:49:2830448332998109894-50CRUISE
2017-02-01 08:50:2830448332998110057-50CRUISE
2017-02-01 08:51:2830448332998110217-50CRUISE
2017-02-01 08:52:2830448332999110376-50CRUISE
2017-02-01 08:53:2830448332996110536-50CRUISE
2017-02-01 08:54:2830448332998110696-50CRUISE
2017-02-01 08:55:2830448332998110857-50CRUISE
2017-02-01 08:56:2930448332998111020-50CRUISE
2017-02-01 08:57:2930448332998111178-50CRUISE
2017-02-01 08:58:2930448332998111342-50CRUISE
2017-02-01 08:59:2929945930786111402-45DESCEND
2017-02-01 09:00:2930044228289111464-41DESCEND
2017-02-01 09:01:2929942525922111524-36DESCEND
2017-02-01 09:02:2929941023663111585-31DESCEND
2017-02-01 09:03:2929939621415111646-27DESCEND
2017-02-01 09:04:2929938319232111707-23DESCEND
2017-02-01 09:05:2929937117105111768-18DESCEND
2017-02-01 09:06:2929936115023111829-14DESCEND
2017-02-01 09:07:2929935012942111889-10DESCEND
2017-02-01 09:08:2928031910911111951-6DESCEND
2017-02-01 09:09:292422769444112011-3DESCEND
2017-02-01 09:10:2921524279351120730DESCEND
2017-02-01 09:11:2920222365431121342DESCEND
2017-02-01 09:12:2919420450831122254DESCEND
2017-02-01 09:13:2917518332121122998DESCEND
2017-02-01 09:14:2915516026071124969DESCEND
2017-02-01 09:15:29138142155611266611DESCEND
2017-02-01 09:16:29194193177011315811CLIMBING
2017-02-01 09:17:2919019232871136048CLIMBING
2017-02-01 09:18:2923524440241139887CRUISE
2017-02-01 09:19:2920821836571141857DESCEND
2017-02-01 09:20:2914815429281143729DESCEND
2017-02-01 09:21:29163166167111455611DESCEND
2017-02-01 09:22:29454454011462514LANDED
2017-02-01 09:23:29131354011473314TAXI TO THE GATE
2017-02-01 09:24:295554011485814TAXI TO THE GATE